Time;durP1;ratioP1;P1;durP2;ratioP2;P2;SDS_P1;SDS_P2;PMS_P1;PMS_P2;Temp;Humidity;BMP_temperature;BMP_pressure;BME280_temperature;BME280_humidity;BME280_pressure;Samples;Min_cycle;Max_cycle;Signal;HPM_P1;HPM_P2
2023/02/09 00:01:21;;;;;;;0.50;0.50;;;-5.70;82.00;;;;;;5005255;28;20191;-75
2023/02/09 00:03:51;;;;;;;0.73;0.73;;;-5.70;81.10;;;;;;5006326;28;20206;-75
2023/02/09 00:06:25;;;;;;;0.30;0.30;;;-5.70;81.00;;;;;;5007638;28;20610;-75
2023/02/09 00:08:57;;;;;;;0.37;0.37;;;-5.80;82.10;;;;;;5002624;28;20211;-75
2023/02/09 00:14:19;;;;;;;0.20;0.20;;;-5.80;82.80;;;;;;5001205;28;20275;-75
2023/02/09 00:16:49;;;;;;;3.37;0.90;;;-5.90;82.70;;;;;;5007488;28;20188;-75
2023/02/09 00:19:22;;;;;;;0.20;0.20;;;-5.90;83.20;;;;;;5006324;28;20267;-75
2023/02/09 00:21:53;;;;;;;0.50;0.50;;;-5.90;83.30;;;;;;5007144;28;20709;-75
2023/02/09 00:24:25;;;;;;;0.33;0.33;;;-5.90;83.60;;;;;;5007727;28;20196;-75
2023/02/09 00:26:53;;;;;;;0.60;0.60;;;-5.90;83.00;;;;;;5009369;28;20792;-75
2023/02/09 00:29:25;;;;;;;1.33;0.43;;;-5.90;83.50;;;;;;5009365;28;20193;-76
2023/02/09 00:31:56;;;;;;;0.43;0.43;;;-5.90;82.20;;;;;;5012550;28;20185;-75
2023/02/09 00:34:27;;;;;;;0.20;0.20;;;-6.00;82.40;;;;;;5006004;28;20192;-76
2023/02/09 00:37:00;;;;;;;0.63;0.20;;;-6.00;82.10;;;;;;5006478;28;20263;-75
2023/02/09 00:39:29;;;;;;;0.40;0.40;;;-6.00;82.10;;;;;;5008080;28;20287;-73
2023/02/09 00:42:06;;;;;;;0.20;0.20;;;-6.10;82.80;;;;;;5005528;28;20613;-75
2023/02/09 00:44:39;;;;;;;0.37;0.37;;;-6.10;83.30;;;;;;5015946;28;20189;-75
2023/02/09 00:47:09;;;;;;;0.53;0.53;;;-6.10;82.40;;;;;;5014970;28;20216;-75
2023/02/09 00:49:41;;;;;;;0.30;0.30;;;-6.20;82.60;;;;;;5006255;28;20799;-74
2023/02/09 00:52:09;;;;;;;0.73;0.73;;;-6.20;82.70;;;;;;5010973;28;20187;-74
2023/02/09 00:54:38;;;;;;;0.20;0.20;;;-6.20;83.10;;;;;;5007272;28;20177;-74
2023/02/09 00:57:10;;;;;;;0.10;0.10;;;-6.20;83.10;;;;;;5010150;28;20191;-74
2023/02/09 00:59:42;;;;;;;0.23;0.23;;;-6.20;83.50;;;;;;5009315;28;20607;-74
2023/02/09 01:02:11;;;;;;;2.53;0.40;;;-6.10;83.80;;;;;;5008481;28;20616;-74
2023/02/09 01:04:39;;;;;;;0.87;0.27;;;-6.10;83.60;;;;;;4978334;28;20203;-74
2023/02/09 01:07:11;;;;;;;0.40;0.40;;;-6.20;83.40;;;;;;5000188;28;20802;-74
2023/02/09 01:09:40;;;;;;;0.20;0.20;;;-6.20;83.50;;;;;;5004690;28;20346;-74
2023/02/09 01:12:08;;;;;;;0.83;0.27;;;-6.20;83.70;;;;;;5006292;28;20271;-74
2023/02/09 01:14:38;;;;;;;0.60;0.60;;;-6.20;83.60;;;;;;5004578;28;20668;-74
2023/02/09 01:17:07;;;;;;;0.43;0.43;;;-6.20;83.70;;;;;;5006131;28;20279;-74
2023/02/09 01:19:36;;;;;;;0.30;0.30;;;-6.20;83.80;;;;;;5006579;28;20570;-75
2023/02/09 01:22:05;;;;;;;0.40;0.40;;;-6.30;83.90;;;;;;5009731;28;20200;-74
2023/02/09 01:24:34;;;;;;;0.10;0.10;;;-6.20;83.90;;;;;;5007915;28;20181;-74
2023/02/09 01:27:03;;;;;;;0.50;0.50;;;-6.20;84.10;;;;;;5010974;28;20242;-74
2023/02/09 01:29:32;;;;;;;0.30;0.30;;;-6.20;84.20;;;;;;5007902;28;20192;-74
2023/02/09 01:32:04;;;;;;;0.20;0.20;;;-6.20;84.10;;;;;;5009347;28;20207;-74
2023/02/09 01:34:33;;;;;;;0.47;0.47;;;-6.20;84.10;;;;;;5004472;28;20188;-74
2023/02/09 01:37:01;;;;;;;1.30;1.20;;;-6.20;84.10;;;;;;5005573;28;20191;-75
2023/02/09 01:39:33;;;;;;;0.40;0.40;;;-6.20;84.10;;;;;;5005716;28;20620;-74
2023/02/09 01:42:02;;;;;;;3.30;0.50;;;-6.30;84.00;;;;;;5009276;28;20261;-74
2023/02/09 01:44:31;;;;;;;0.30;0.30;;;-6.30;83.90;;;;;;5008063;28;20184;-75
2023/02/09 01:47:08;;;;;;;0.10;0.10;;;-6.30;83.70;;;;;;5012822;28;20362;-75
2023/02/09 01:49:37;;;;;;;0.40;0.20;;;-6.30;83.80;;;;;;5003826;28;20200;-75
2023/02/09 01:52:18;;;;;;;0.47;0.40;;;-6.30;83.70;;;;;;5004963;28;20195;-75
2023/02/09 01:55:05;;;;;;;0.10;0.10;;;-6.40;83.70;;;;;;5025178;28;20215;-75
2023/02/09 01:57:49;;;;;;;0.40;0.40;;;-6.40;83.80;;;;;;5005803;28;20755;-75
2023/02/09 02:00:22;;;;;;;0.33;0.33;;;-6.30;84.00;;;;;;5008104;28;20220;-75
2023/02/09 02:02:57;;;;;;;0.20;0.20;;;-6.40;83.90;;;;;;5007898;28;20275;-75
2023/02/09 02:05:29;;;;;;;0.63;0.53;;;-6.40;84.00;;;;;;5005464;28;20280;-75
2023/02/09 02:08:01;;;;;;;0.20;0.20;;;-6.50;83.90;;;;;;5006124;28;20212;-76
2023/02/09 02:10:32;;;;;;;0.20;0.20;;;-6.50;84.10;;;;;;5006985;28;20576;-75
2023/02/09 02:13:02;;;;;;;0.30;0.30;;;-6.50;84.30;;;;;;5006794;28;20195;-75
2023/02/09 02:15:54;;;;;;;0.43;0.43;;;-6.50;84.60;;;;;;5007129;28;20334;-74
2023/02/09 02:18:54;;;;;;;0.30;0.30;;;-6.60;84.40;;;;;;5003586;28;20205;-74
2023/02/09 02:21:57;;;;;;;0.13;0.13;;;-6.50;84.60;;;;;;4962645;28;20249;-75
2023/02/09 02:24:59;;;;;;;0.20;0.20;;;-6.60;84.20;;;;;;4964955;28;20559;-75
2023/02/09 02:28:00;;;;;;;0.07;0.07;;;-6.60;84.10;;;;;;4899685;29;20263;-75
2023/02/09 02:30:58;;;;;;;0.00;0.00;;;-6.60;84.10;;;;;;4905026;29;20197;-75
2023/02/09 02:33:54;;;;;;;0.10;0.10;;;-6.60;84.10;;;;;;4869843;29;20204;-75
2023/02/09 02:36:43;;;;;;;2.63;0.40;;;-6.60;84.10;;;;;;4869155;29;20281;-75
2023/02/09 02:39:52;;;;;;;0.13;0.13;;;-6.60;84.00;;;;;;4868849;29;20197;-75
2023/02/09 02:42:48;;;;;;;0.30;0.30;;;-6.70;84.10;;;;;;4828717;29;20308;-75
2023/02/09 02:45:49;;;;;;;0.00;0.00;;;-6.70;84.10;;;;;;4837714;29;20273;-74
2023/02/09 02:48:29;;;;;;;0.40;0.40;;;-6.70;84.10;;;;;;4831239;29;20209;-75
2023/02/09 02:51:38;;;;;;;2.60;0.37;;;-6.70;84.00;;;;;;4831073;29;20286;-75
2023/02/09 02:54:13;;;;;;;0.17;0.17;;;-6.70;83.60;;;;;;4831121;29;20203;-75
2023/02/09 02:56:57;;;;;;;0.00;0.00;;;-6.80;83.50;;;;;;4834923;29;20289;-75
2023/02/09 02:59:35;;;;;;;0.10;0.10;;;-6.80;83.40;;;;;;4849307;29;20595;-74
2023/02/09 03:02:18;;;;;;;1.80;0.30;;;-6.80;83.30;;;;;;4857504;29;20244;-75
2023/02/09 03:04:54;;;;;;;0.07;0.07;;;-6.80;83.30;;;;;;4844393;29;20204;-74
2023/02/09 03:07:25;;;;;;;0.10;0.10;;;-6.90;83.40;;;;;;4853469;29;20385;-72
2023/02/09 03:09:56;;;;;;;0.10;0.10;;;-6.90;83.20;;;;;;4876060;29;20205;-75
2023/02/09 03:12:34;;;;;;;0.10;0.10;;;-6.90;83.20;;;;;;4943505;29;20686;-75
2023/02/09 03:15:34;;;;;;;0.10;0.10;;;-6.90;83.20;;;;;;4943237;29;20236;-75
2023/02/09 03:18:28;;;;;;;0.10;0.10;;;-6.90;83.20;;;;;;4915471;28;20238;-75
2023/02/09 03:21:16;;;;;;;0.10;0.10;;;-6.90;83.40;;;;;;4982070;28;20212;-75
2023/02/09 03:24:27;;;;;;;1.10;0.57;;;-6.90;83.50;;;;;;4982161;28;20246;-75
2023/02/09 03:27:16;;;;;;;0.20;0.20;;;-6.90;83.50;;;;;;4969806;28;20266;-75
2023/02/09 03:29:52;;;;;;;0.10;0.10;;;-7.00;83.60;;;;;;4979361;28;20205;-74
2023/02/09 03:32:26;;;;;;;1.03;0.27;;;-7.00;83.50;;;;;;4982375;28;20235;-75
2023/02/09 03:34:56;;;;;;;0.13;0.13;;;-7.00;83.60;;;;;;4981823;28;20243;-74
2023/02/09 03:37:25;;;;;;;0.10;0.10;;;-7.00;83.70;;;;;;4981475;28;20189;-74
2023/02/09 03:39:54;;;;;;;0.10;0.10;;;-7.10;83.80;;;;;;4982905;28;20295;-74
2023/02/09 03:42:26;;;;;;;0.13;0.13;;;-7.10;83.80;;;;;;4981789;28;20303;-74
2023/02/09 03:44:57;;;;;;;0.00;0.00;;;-7.10;83.80;;;;;;4982598;28;20185;-74
2023/02/09 03:47:26;;;;;;;0.10;0.10;;;-7.10;83.70;;;;;;4982328;28;20213;-74
2023/02/09 03:49:56;;;;;;;0.10;0.10;;;-7.10;83.50;;;;;;4980833;28;20241;-75
2023/02/09 03:52:32;;;;;;;0.10;0.10;;;-7.10;83.50;;;;;;4982131;28;20227;-74
2023/02/09 03:55:02;;;;;;;0.30;0.30;;;-7.10;83.50;;;;;;4992821;28;20200;-74
2023/02/09 03:57:34;;;;;;;0.10;0.10;;;-7.20;83.60;;;;;;5004924;28;20270;-74
2023/02/09 04:00:06;;;;;;;0.23;0.20;;;-7.20;83.60;;;;;;5002944;28;20299;-74
2023/02/09 04:02:35;;;;;;;0.10;0.10;;;-7.20;83.70;;;;;;5004372;28;20571;-74
2023/02/09 04:05:04;;;;;;;0.23;0.20;;;-7.20;83.80;;;;;;5003449;28;20202;-74
2023/02/09 04:07:32;;;;;;;0.20;0.20;;;-7.20;83.80;;;;;;5003750;28;20216;-75
2023/02/09 04:10:01;;;;;;;0.10;0.10;;;-7.20;83.80;;;;;;5003872;28;20263;-74
2023/02/09 04:12:30;;;;;;;0.93;0.20;;;-7.20;83.80;;;;;;5004855;28;20246;-75
2023/02/09 04:15:02;;;;;;;0.10;0.10;;;-7.20;83.80;;;;;;5007819;28;20644;-74
2023/02/09 04:17:33;;;;;;;0.00;0.00;;;-7.20;83.80;;;;;;5008437;28;20206;-74
2023/02/09 04:20:05;;;;;;;0.20;0.20;;;-7.20;83.70;;;;;;5007760;28;20199;-74
2023/02/09 04:22:34;;;;;;;0.10;0.10;;;-7.20;83.70;;;;;;5014335;28;20191;-74
2023/02/09 04:25:03;;;;;;;0.10;0.10;;;-7.20;83.70;;;;;;5017585;28;20191;-74
2023/02/09 04:27:31;;;;;;;0.00;0.00;;;-7.30;83.70;;;;;;5012176;28;20224;-74
2023/02/09 04:30:03;;;;;;;0.00;0.00;;;-7.30;83.80;;;;;;5011631;28;20202;-74
2023/02/09 04:32:31;;;;;;;0.00;0.00;;;-7.30;83.90;;;;;;5035356;28;20199;-75
2023/02/09 04:35:03;;;;;;;0.10;0.10;;;-7.30;84.00;;;;;;5006662;28;20573;-75
2023/02/09 04:37:34;;;;;;;0.67;0.63;;;-7.30;84.00;;;;;;5008398;28;20229;-75
2023/02/09 04:40:06;;;;;;;0.10;0.10;;;-7.30;84.00;;;;;;5010342;28;20191;-74
2023/02/09 04:42:34;;;;;;;0.10;0.10;;;-7.30;84.10;;;;;;5006055;28;20774;-75
2023/02/09 04:45:04;;;;;;;0.00;0.00;;;-7.30;84.10;;;;;;5010177;28;20192;-74
2023/02/09 04:47:35;;;;;;;0.13;0.13;;;-7.30;84.10;;;;;;5006130;28;20216;-74
2023/02/09 04:50:05;;;;;;;0.10;0.10;;;-7.30;84.10;;;;;;5006798;28;20195;-73
2023/02/09 04:52:33;;;;;;;0.10;0.10;;;-7.30;84.10;;;;;;5006425;28;20266;-74
2023/02/09 04:55:05;;;;;;;0.10;0.10;;;-7.30;84.10;;;;;;5005630;28;20682;-73
2023/02/09 05:00:26;;;;;;;0.03;0.03;;;-7.30;84.10;;;;;;5006494;28;20228;-73
2023/02/09 05:02:57;;;;;;;0.13;0.13;;;-7.30;84.20;;;;;;5007395;28;20605;-74
2023/02/09 05:05:26;;;;;;;0.83;0.53;;;-7.40;84.30;;;;;;5006952;28;20833;-74
2023/02/09 05:07:58;;;;;;;0.20;0.20;;;-7.40;84.40;;;;;;5005030;28;20191;-75
2023/02/09 05:10:30;;;;;;;0.00;0.00;;;-7.40;84.60;;;;;;5006027;28;20558;-78
2023/02/09 05:12:59;;;;;;;0.20;0.20;;;-7.40;84.60;;;;;;5004862;28;20199;-79
2023/02/09 05:15:30;;;;;;;0.00;0.00;;;-7.40;84.60;;;;;;5006745;28;20276;-79
2023/02/09 05:17:59;;;;;;;0.10;0.10;;;-7.40;84.70;;;;;;5006378;28;20840;-78
2023/02/09 05:20:28;;;;;;;1.10;0.20;;;-7.40;84.60;;;;;;5005126;28;20176;-81
2023/02/09 05:22:59;;;;;;;0.20;0.20;;;-7.40;84.60;;;;;;5003070;28;20296;-80
2023/02/09 05:25:28;;;;;;;0.20;0.20;;;-7.40;84.60;;;;;;5035381;28;20262;-79
2023/02/09 05:27:56;;;;;;;0.30;0.30;;;-7.50;84.70;;;;;;5006524;28;20270;-82
2023/02/09 05:30:25;;;;;;;0.00;0.00;;;-7.40;84.10;;;;;;5038954;28;20741;-77
2023/02/09 05:32:57;;;;;;;0.00;0.00;;;-7.50;84.90;;;;;;5039269;28;20684;-79
2023/02/09 05:35:26;;;;;;;0.20;0.20;;;-7.50;85.30;;;;;;5011023;28;20575;-77
2023/02/09 05:37:57;;;;;;;0.10;0.10;;;-7.50;85.40;;;;;;5014269;28;20193;-75
2023/02/09 05:40:29;;;;;;;0.33;0.33;;;-7.60;85.10;;;;;;5010628;28;20188;-75
2023/02/09 05:42:58;;;;;;;0.30;0.30;;;-7.60;85.00;;;;;;5006048;28;21050;-74
2023/02/09 05:45:31;;;;;;;0.40;0.40;;;-7.60;85.10;;;;;;5005780;28;20186;-76
2023/02/09 05:47:59;;;;;;;0.47;0.40;;;-7.60;85.20;;;;;;5006203;28;20194;-74
2023/02/09 05:50:30;;;;;;;0.10;0.10;;;-7.60;85.30;;;;;;5007033;28;20261;-77
2023/02/09 05:52:59;;;;;;;0.10;0.10;;;-7.50;85.30;;;;;;5006762;28;20179;-78
2023/02/09 05:55:29;;;;;;;0.10;0.10;;;-7.50;85.30;;;;;;5019769;28;20175;-78
2023/02/09 05:57:59;;;;;;;0.87;0.40;;;-7.50;85.40;;;;;;5009897;28;20207;-78
2023/02/09 06:00:28;;;;;;;0.23;0.20;;;-7.40;85.20;;;;;;5006049;28;20228;-76
2023/02/09 06:02:58;;;;;;;0.10;0.10;;;-7.40;85.20;;;;;;5003831;28;20184;-76
2023/02/09 06:05:28;;;;;;;0.00;0.00;;;-7.40;85.00;;;;;;5016370;28;20196;-75
2023/02/09 06:08:04;;;;;;;0.20;0.20;;;-7.20;84.30;;;;;;5005188;28;20175;-76
2023/02/09 06:10:32;;;;;;;0.10;0.10;;;-7.10;83.40;;;;;;5005964;28;20182;-76
2023/02/09 06:13:02;;;;;;;0.30;0.30;;;-7.10;83.40;;;;;;5006174;28;20185;-76
2023/02/09 06:15:30;;;;;;;0.40;0.40;;;-7.20;83.90;;;;;;5004744;28;20721;-75
2023/02/09 06:18:02;;;;;;;0.00;0.00;;;-7.20;84.20;;;;;;5006474;28;20222;-76
2023/02/09 06:20:30;;;;;;;0.00;0.00;;;-7.10;84.50;;;;;;5000114;28;20203;-75
2023/02/09 06:23:02;;;;;;;0.33;0.33;;;-7.10;84.50;;;;;;5011028;28;20241;-76
2023/02/09 06:25:30;;;;;;;0.20;0.20;;;-7.10;84.50;;;;;;5004151;28;20605;-75
2023/02/09 06:28:02;;;;;;;0.00;0.00;;;-7.00;84.50;;;;;;5005767;28;20825;-75
2023/02/09 06:30:31;;;;;;;0.10;0.10;;;-6.90;84.80;;;;;;5005741;28;20208;-75
2023/02/09 06:32:59;;;;;;;0.23;0.23;;;-6.90;85.10;;;;;;5005982;28;20391;-75
2023/02/09 06:35:28;;;;;;;0.10;0.10;;;-6.90;84.90;;;;;;5004505;28;20728;-75
2023/02/09 06:37:59;;;;;;;0.00;0.00;;;-6.70;84.90;;;;;;5005407;28;20212;-76
2023/02/09 06:40:28;;;;;;;0.20;0.20;;;-6.60;84.90;;;;;;5004598;28;20188;-76
2023/02/09 06:42:57;;;;;;;0.23;0.23;;;-6.50;85.10;;;;;;5004322;28;20184;-76
2023/02/09 06:45:26;;;;;;;0.10;0.10;;;-6.40;84.50;;;;;;5008627;28;20187;-76
2023/02/09 06:47:54;;;;;;;0.30;0.30;;;-6.30;84.40;;;;;;5003171;28;20283;-76
2023/02/09 06:50:23;;;;;;;0.10;0.10;;;-6.10;83.50;;;;;;5004894;28;20203;-76
2023/02/09 06:52:51;;;;;;;0.10;0.10;;;-6.10;83.60;;;;;;5004829;28;20192;-76
2023/02/09 06:55:20;;;;;;;0.40;0.20;;;-6.00;83.20;;;;;;5034233;28;20184;-76
2023/02/09 06:57:48;;;;;;;0.10;0.10;;;-5.90;83.20;;;;;;5005028;28;20200;-77
2023/02/09 07:00:17;;;;;;;1.07;0.30;;;-5.70;82.90;;;;;;5004742;28;20213;-76
2023/02/09 07:02:47;;;;;;;0.40;0.40;;;-5.60;83.20;;;;;;4998558;28;20185;-75
2023/02/09 07:05:21;;;;;;;0.07;0.07;;;-5.40;82.90;;;;;;5001208;28;20235;-77
2023/02/09 07:07:48;;;;;;;0.10;0.10;;;-5.10;82.70;;;;;;5003346;28;20226;-75
2023/02/09 07:10:15;;;;;;;0.10;0.10;;;-4.70;81.60;;;;;;5002510;28;20752;-76
2023/02/09 07:12:42;;;;;;;0.53;0.53;;;-4.10;81.50;;;;;;5006154;28;20795;-76
2023/02/09 07:15:10;;;;;;;0.20;0.20;;;-3.40;80.20;;;;;;5005199;28;20189;-76
2023/02/09 07:17:35;;;;;;;0.53;0.53;;;-2.60;76.70;;;;;;5005907;28;20244;-76
2023/02/09 07:20:01;;;;;;;0.50;0.50;;;-1.80;75.50;;;;;;5012460;28;20192;-76
2023/02/09 07:22:28;;;;;;;3.97;0.70;;;-1.00;73.50;;;;;;5007515;28;20182;-76
2023/02/09 07:24:53;;;;;;;1.80;1.07;;;-0.10;71.30;;;;;;5012218;28;20181;-76
2023/02/09 07:27:19;;;;;;;6.53;1.17;;;0.50;67.60;;;;;;5011664;28;20761;-76
2023/02/09 07:29:45;;;;;;;0.40;0.40;;;1.00;66.10;;;;;;5009333;28;20235;-76
2023/02/09 07:32:16;;;;;;;0.90;0.90;;;1.60;65.90;;;;;;5005672;28;20193;-76
2023/02/09 07:34:42;;;;;;;0.67;0.67;;;2.20;63.70;;;;;;5004961;28;20315;-76
2023/02/09 07:37:07;;;;;;;0.33;0.33;;;2.70;62.50;;;;;;5008963;28;20644;-77
2023/02/09 07:39:41;;;;;;;0.83;0.83;;;3.30;61.20;;;;;;5012635;28;20184;-76
2023/02/09 07:42:06;;;;;;;0.90;0.90;;;3.80;61.90;;;;;;5005284;28;20177;-77
2023/02/09 07:44:32;;;;;;;3.80;1.90;;;4.40;61.50;;;;;;5005192;28;20181;-77
2023/02/09 07:47:01;;;;;;;1.37;1.27;;;5.10;60.20;;;;;;5004668;28;20212;-77
2023/02/09 07:49:26;;;;;;;1.50;1.40;;;5.70;56.60;;;;;;5004658;28;20553;-77
2023/02/09 07:51:52;;;;;;;2.50;1.73;;;6.00;55.40;;;;;;5008402;28;20185;-77
2023/02/09 07:54:18;;;;;;;1.70;1.60;;;6.30;56.10;;;;;;5007708;28;20758;-77
2023/02/09 07:56:43;;;;;;;1.43;1.33;;;6.70;54.70;;;;;;5008833;28;20262;-77
2023/02/09 07:59:09;;;;;;;3.17;1.60;;;7.20;54.10;;;;;;5017092;28;20734;-77
2023/02/09 08:01:35;;;;;;;3.17;1.60;;;7.60;53.60;;;;;;5016478;28;20189;-76
2023/02/09 08:04:01;;;;;;;3.33;2.03;;;7.90;52.50;;;;;;5007960;28;20185;-76
2023/02/09 08:06:39;;;;;;;2.47;2.03;;;8.30;52.50;;;;;;5015560;28;20217;-77
2023/02/09 08:09:06;;;;;;;2.50;1.47;;;8.60;51.50;;;;;;5006752;28;20169;-75
2023/02/09 08:11:39;;;;;;;1.77;1.67;;;8.90;51.40;;;;;;5011015;28;20208;-76
2023/02/09 08:14:09;;;;;;;1.37;1.27;;;9.20;51.20;;;;;;5029645;28;20223;-75
2023/02/09 08:16:35;;;;;;;1.40;1.30;;;9.30;50.20;;;;;;5001870;28;20192;-76
2023/02/09 08:19:13;;;;;;;6.83;1.47;;;9.60;49.80;;;;;;5013650;28;20200;-76
2023/02/09 08:21:43;;;;;;;4.73;1.50;;;9.50;49.30;;;;;;5010914;28;20192;-76
2023/02/09 08:24:10;;;;;;;2.43;1.80;;;9.50;49.10;;;;;;5008116;28;20185;-75
2023/02/09 08:26:36;;;;;;;1.23;1.23;;;9.70;48.80;;;;;;5012792;28;20236;-75
2023/02/09 08:29:02;;;;;;;2.23;2.03;;;9.80;48.90;;;;;;5000237;28;20223;-75
2023/02/09 08:31:27;;;;;;;1.87;1.77;;;9.90;48.10;;;;;;5007634;28;20201;-75
2023/02/09 08:33:53;;;;;;;1.87;1.43;;;9.70;46.90;;;;;;5007606;28;20185;-76
2023/02/09 08:36:19;;;;;;;2.42;1.65;;;9.50;47.50;;;;;;5014937;28;20677;-76
2023/02/09 08:38:46;;;;;;;2.43;1.07;;;9.60;47.80;;;;;;5010270;28;20216;-76
2023/02/09 08:41:14;;;;;;;1.77;1.45;;;9.80;47.60;;;;;;5007742;28;20184;-75
2023/02/09 08:43:39;;;;;;;1.08;1.08;;;9.90;46.70;;;;;;5007243;28;20213;-75
2023/02/09 08:46:11;;;;;;;0.95;0.95;;;10.20;47.10;;;;;;5007287;28;21018;-74
2023/02/09 08:48:39;;;;;;;2.00;1.40;;;10.50;47.60;;;;;;5006479;28;20247;-74
2023/02/09 08:51:07;;;;;;;2.33;1.73;;;10.50;46.90;;;;;;5005459;28;20240;-74
2023/02/09 08:53:33;;;;;;;1.77;1.60;;;10.90;46.90;;;;;;5006508;28;20188;-75
2023/02/09 08:55:59;;;;;;;1.48;1.38;;;11.40;47.10;;;;;;5006548;28;20189;-75
2023/02/09 08:58:25;;;;;;;2.55;1.70;;;12.10;47.60;;;;;;5008719;28;20235;-75
2023/02/09 09:00:58;;;;;;;1.88;1.40;;;12.60;45.40;;;;;;5015077;28;20197;-76
2023/02/09 09:03:30;;;;;;;1.73;1.63;;;12.90;43.50;;;;;;5006397;28;20177;-74
2023/02/09 09:06:07;;;;;;;1.55;1.45;;;12.90;44.90;;;;;;5000734;28;20211;-74
2023/02/09 09:08:34;;;;;;;1.83;1.73;;;13.30;44.60;;;;;;5006356;28;20989;-75
2023/02/09 09:11:00;;;;;;;2.80;1.77;;;13.70;44.50;;;;;;5008918;28;20184;-75
2023/02/09 09:13:26;;;;;;;1.83;1.73;;;14.10;44.40;;;;;;5010519;28;20185;-76
2023/02/09 09:15:54;;;;;;;1.75;1.55;;;14.70;44.00;;;;;;5011037;28;20259;-76
2023/02/09 09:18:21;;;;;;;2.53;1.65;;;15.20;43.50;;;;;;5005262;28;20181;-75
2023/02/09 09:20:47;;;;;;;1.77;1.67;;;15.80;43.00;;;;;;5006824;28;20315;-75
2023/02/09 09:23:13;;;;;;;2.67;2.40;;;16.20;42.40;;;;;;5015289;28;20274;-76
2023/02/09 09:25:40;;;;;;;2.65;2.28;;;16.20;41.70;;;;;;5031683;28;20681;-76
2023/02/09 09:28:06;;;;;;;1.60;1.48;;;16.20;42.20;;;;;;5005704;28;20192;-76
2023/02/09 09:30:32;;;;;;;1.58;1.50;;;16.50;42.40;;;;;;5007173;28;20195;-75
2023/02/09 09:32:59;;;;;;;1.75;1.65;;;16.70;42.60;;;;;;5009476;28;20188;-76
2023/02/09 09:35:26;;;;;;;2.30;2.13;;;17.00;41.90;;;;;;5005957;28;20947;-75
2023/02/09 09:37:54;;;;;;;1.73;1.60;;;17.30;40.80;;;;;;5005760;28;20328;-76
2023/02/09 09:40:23;;;;;;;1.63;1.48;;;17.50;41.40;;;;;;5010293;28;20183;-75
2023/02/09 09:43:01;;;;;;;1.92;1.75;;;17.80;41.60;;;;;;5003595;28;20199;-75
2023/02/09 09:45:30;;;;;;;3.95;1.80;;;18.10;40.70;;;;;;5004331;28;20193;-75
2023/02/09 09:47:56;;;;;;;2.05;1.60;;;18.60;40.50;;;;;;5004991;28;20224;-75
2023/02/09 09:50:26;;;;;;;1.75;1.65;;;18.80;41.00;;;;;;5005846;28;20181;-75
2023/02/09 09:53:27;;;;;;;2.47;1.90;;;19.10;40.40;;;;;;5006086;28;20212;-75
2023/02/09 09:55:58;;;;;;;1.70;1.60;;;19.40;37.30;;;;;;4970559;28;20212;-75
2023/02/09 09:58:24;;;;;;;1.98;1.88;;;19.50;40.00;;;;;;4966862;28;20198;-75
2023/02/09 10:00:50;;;;;;;3.85;1.60;;;19.70;39.60;;;;;;4964336;28;20221;-75
2023/02/09 10:03:21;;;;;;;2.45;2.25;;;20.00;39.70;;;;;;4963721;28;20191;-75
2023/02/09 10:05:50;;;;;;;2.65;2.45;;;20.30;40.00;;;;;;4964188;28;20182;-75
2023/02/09 10:09:14;;;;;;;2.90;2.17;;;19.80;38.50;;;;;;4963758;28;20218;-75
2023/02/09 10:11:58;;;;;;;1.70;1.60;;;19.70;37.90;;;;;;4943687;28;20287;-76
2023/02/09 10:14:24;;;;;;;2.17;1.67;;;19.70;39.10;;;;;;4944221;29;20195;-76
2023/02/09 10:16:49;;;;;;;2.67;2.13;;;19.60;37.70;;;;;;4944456;29;20650;-76
2023/02/09 10:19:22;;;;;;;2.17;2.08;;;19.10;39.50;;;;;;4955676;28;20199;-75
2023/02/09 10:21:48;;;;;;;1.63;1.55;;;19.20;38.30;;;;;;4943085;29;20199;-76
2023/02/09 10:24:25;;;;;;;1.75;1.65;;;19.10;40.10;;;;;;4944338;28;20191;-74
2023/02/09 10:27:16;;;;;;;1.88;1.83;;;19.40;38.30;;;;;;4944399;28;20229;-75
2023/02/09 10:29:41;;;;;;;1.77;1.67;;;19.80;38.50;;;;;;4944673;28;20183;-74
2023/02/09 10:32:10;;;;;;;1.80;1.70;;;20.00;38.80;;;;;;4950020;28;20213;-74
2023/02/09 10:34:39;;;;;;;2.20;2.10;;;20.30;38.90;;;;;;4982915;28;20260;-75
2023/02/09 10:37:33;;;;;;;1.63;1.58;;;20.40;38.70;;;;;;4982224;28;20193;-74
2023/02/09 10:40:11;;;;;;;1.58;1.58;;;20.40;36.60;;;;;;4973958;28;20663;-75
2023/02/09 10:42:42;;;;;;;1.52;1.52;;;20.30;37.80;;;;;;4995598;28;20188;-75
2023/02/09 10:45:37;;;;;;;1.73;1.65;;;20.30;38.70;;;;;;4993107;28;20240;-75
2023/02/09 10:48:11;;;;;;;1.55;1.40;;;20.40;39.30;;;;;;4953690;28;20226;-75
2023/02/09 10:50:52;;;;;;;1.70;1.60;;;20.60;38.70;;;;;;4945443;28;20283;-74
2023/02/09 10:53:20;;;;;;;2.00;1.90;;;20.70;38.20;;;;;;4944050;28;20237;-75
2023/02/09 10:55:45;;;;;;;2.35;2.00;;;20.60;37.50;;;;;;4934197;28;20296;-75
2023/02/09 10:58:23;;;;;;;1.88;1.77;;;20.60;37.50;;;;;;4945552;28;20225;-75
2023/02/09 11:01:18;;;;;;;1.65;1.58;;;20.30;38.70;;;;;;4933931;28;20230;-75
2023/02/09 11:04:06;;;;;;;2.10;1.80;;;20.30;37.00;;;;;;4944408;28;20211;-75
2023/02/09 11:06:49;;;;;;;2.05;1.75;;;20.80;37.60;;;;;;4943796;28;20210;-75
2023/02/09 11:09:17;;;;;;;2.78;2.58;;;21.00;37.50;;;;;;4959768;28;20916;-75
2023/02/09 11:11:44;;;;;;;2.58;2.38;;;21.00;36.10;;;;;;4940421;28;20658;-75
2023/02/09 11:14:16;;;;;;;3.78;2.85;;;21.20;37.50;;;;;;4943868;28;20179;-76
2023/02/09 11:17:18;;;;;;;2.55;2.40;;;20.90;36.50;;;;;;4944009;28;20197;-78
2023/02/09 11:20:02;;;;;;;2.45;2.00;;;20.50;36.60;;;;;;4943917;28;20683;-75
2023/02/09 11:22:59;;;;;;;2.17;2.08;;;20.30;36.30;;;;;;4944611;28;20225;-77
2023/02/09 11:25:31;;;;;;;2.75;1.55;;;20.10;37.30;;;;;;4988753;28;21042;-77
2023/02/09 11:28:09;;;;;;;1.60;1.50;;;19.60;36.70;;;;;;5009549;28;20216;-77
2023/02/09 11:30:59;;;;;;;1.73;1.63;;;19.20;37.00;;;;;;5010487;28;20694;-78
2023/02/09 11:33:30;;;;;;;1.30;1.30;;;18.30;36.90;;;;;;5007598;28;20215;-78
2023/02/09 11:36:20;;;;;;;2.08;1.70;;;18.50;38.60;;;;;;5011651;28;20192;-78
2023/02/09 11:38:53;;;;;;;1.88;1.50;;;18.70;37.60;;;;;;5019535;28;20192;-76
2023/02/09 11:44:55;;;;;;;1.60;1.50;;;18.60;38.60;;;;;;5006249;28;20204;-79
2023/02/09 11:47:29;;;;;;;1.38;1.20;;;18.40;38.90;;;;;;5001375;28;20232;-79
2023/02/09 11:49:57;;;;;;;1.42;1.42;;;18.50;38.70;;;;;;5009263;28;20180;-78
2023/02/09 11:52:38;;;;;;;1.10;1.10;;;18.10;38.60;;;;;;5008904;28;20731;-77
2023/02/09 11:55:27;;;;;;;1.30;1.30;;;17.70;38.20;;;;;;5001924;28;20213;-79
2023/02/09 11:58:10;;;;;;;1.30;1.30;;;16.80;38.70;;;;;;5017789;28;20638;-77
2023/02/09 12:00:45;;;;;;;1.30;1.30;;;16.80;38.30;;;;;;5009579;28;20247;-77
2023/02/09 12:03:12;;;;;;;2.90;1.58;;;17.00;39.20;;;;;;5017460;28;20647;-75
2023/02/09 12:05:41;;;;;;;1.42;1.42;;;17.00;37.00;;;;;;5008065;28;20247;-75
2023/02/09 12:08:18;;;;;;;1.70;1.60;;;16.90;39.50;;;;;;5009701;28;20208;-75
2023/02/09 12:10:47;;;;;;;2.55;1.60;;;16.90;39.60;;;;;;5002001;28;20185;-75
2023/02/09 12:13:31;;;;;;;1.38;1.33;;;16.70;38.60;;;;;;5007103;28;20569;-75
2023/02/09 12:16:01;;;;;;;1.30;1.15;;;16.80;38.40;;;;;;5006848;28;20188;-75
2023/02/09 12:18:29;;;;;;;1.52;1.42;;;16.90;39.00;;;;;;5005605;28;20189;-75
2023/02/09 12:21:00;;;;;;;1.88;1.73;;;16.90;38.50;;;;;;5006527;28;20185;-74
2023/02/09 12:23:41;;;;;;;1.80;1.70;;;16.90;37.50;;;;;;5005011;28;20178;-75
2023/02/09 12:26:15;;;;;;;2.03;1.92;;;16.40;37.80;;;;;;5013202;28;20299;-77
2023/02/09 12:29:02;;;;;;;1.48;1.48;;;16.40;39.90;;;;;;5000626;28;20224;-77
2023/02/09 12:31:29;;;;;;;1.55;1.45;;;16.40;39.00;;;;;;5025588;28;20189;-77
2023/02/09 12:33:58;;;;;;;4.07;1.63;;;16.40;39.30;;;;;;5014487;28;20194;-78
2023/02/09 12:36:28;;;;;;;1.63;1.38;;;16.60;39.60;;;;;;5009426;28;20191;-78
2023/02/09 12:39:04;;;;;;;2.53;2.05;;;16.80;39.40;;;;;;5011302;28;20699;-78
2023/02/09 12:41:50;;;;;;;1.48;1.15;;;16.90;39.00;;;;;;5008786;28;20195;-79
2023/02/09 12:44:17;;;;;;;1.40;1.40;;;15.80;36.60;;;;;;4993075;28;20197;-76
2023/02/09 12:46:45;;;;;;;1.67;1.58;;;15.40;39.30;;;;;;4995233;28;20217;-78
2023/02/09 12:49:11;;;;;;;1.75;1.65;;;15.10;40.30;;;;;;4996396;28;20197;-78
2023/02/09 12:51:53;;;;;;;1.67;1.58;;;14.70;39.60;;;;;;4989402;28;20233;-77
2023/02/09 12:54:43;;;;;;;1.27;1.27;;;13.80;39.40;;;;;;4986408;28;20316;-77
2023/02/09 12:57:15;;;;;;;1.80;1.70;;;13.60;42.40;;;;;;4992274;28;20252;-77
2023/02/09 12:59:49;;;;;;;1.70;1.60;;;13.70;42.00;;;;;;4992567;28;20201;-77
2023/02/09 13:02:37;;;;;;;1.80;1.70;;;13.90;42.20;;;;;;4998306;28;20192;-76
2023/02/09 13:05:20;;;;;;;1.92;1.60;;;13.90;41.00;;;;;;4987721;28;20762;-77
2023/02/09 13:07:55;;;;;;;2.28;1.67;;;13.90;41.00;;;;;;4991442;28;20309;-76
2023/02/09 13:10:39;;;;;;;1.77;1.67;;;13.60;39.60;;;;;;4986989;28;20271;-79
2023/02/09 13:13:16;;;;;;;1.83;1.65;;;12.90;41.20;;;;;;4972363;28;20196;-77
2023/02/09 13:15:59;;;;;;;1.35;1.35;;;12.90;43.30;;;;;;4992983;28;20280;-78
2023/02/09 13:18:31;;;;;;;1.60;1.55;;;13.10;41.30;;;;;;4987009;28;20698;-77
2023/02/09 13:21:24;;;;;;;1.50;1.42;;;13.30;42.50;;;;;;5004474;28;20594;-77
2023/02/09 13:24:06;;;;;;;2.08;1.85;;;13.50;41.80;;;;;;5004992;28;20836;-77
2023/02/09 13:26:34;;;;;;;1.63;1.52;;;13.60;40.30;;;;;;5015426;28;20271;-77
2023/02/09 13:29:07;;;;;;;1.65;1.55;;;13.30;41.40;;;;;;5010090;28;20183;-77